sensor_id;sensor_type;location;lat;lon;timestamp;P1;durP1;ratioP1;P2;durP2;ratioP2
25535;SDS011;13431;51.352;6.412;2023-08-07T00:00:13;2.97;;;1.83;;
25535;SDS011;13431;51.352;6.412;2023-08-07T00:02:41;2.20;;;1.40;;
25535;SDS011;13431;51.352;6.412;2023-08-07T00:05:08;4.22;;;1.30;;
25535;SDS011;13431;51.352;6.412;2023-08-07T00:07:35;2.42;;;1.80;;
25535;SDS011;13431;51.352;6.412;2023-08-07T00:10:03;2.80;;;1.20;;
25535;SDS011;13431;51.352;6.412;2023-08-07T00:12:30;2.25;;;1.38;;
25535;SDS011;13431;51.352;6.412;2023-08-07T00:14:58;2.10;;;1.40;;
25535;SDS011;13431;51.352;6.412;2023-08-07T00:17:25;2.40;;;1.30;;
25535;SDS011;13431;51.352;6.412;2023-08-07T00:19:52;2.47;;;1.80;;
25535;SDS011;13431;51.352;6.412;2023-08-07T00:22:20;3.45;;;1.80;;
25535;SDS011;13431;51.352;6.412;2023-08-07T00:24:47;3.25;;;1.35;;
25535;SDS011;13431;51.352;6.412;2023-08-07T00:27:15;1.92;;;1.05;;
25535;SDS011;13431;51.352;6.412;2023-08-07T00:29:42;5.45;;;1.45;;
25535;SDS011;13431;51.352;6.412;2023-08-07T00:32:09;1.63;;;1.20;;
25535;SDS011;13431;51.352;6.412;2023-08-07T00:34:39;2.05;;;1.30;;
25535;SDS011;13431;51.352;6.412;2023-08-07T00:37:06;2.55;;;1.40;;
25535;SDS011;13431;51.352;6.412;2023-08-07T00:39:34;2.97;;;1.20;;
25535;SDS011;13431;51.352;6.412;2023-08-07T00:42:01;1.83;;;1.30;;
25535;SDS011;13431;51.352;6.412;2023-08-07T00:44:29;3.10;;;1.45;;
25535;SDS011;13431;51.352;6.412;2023-08-07T00:46:56;3.47;;;1.35;;
25535;SDS011;13431;51.352;6.412;2023-08-07T00:49:24;2.30;;;1.38;;
25535;SDS011;13431;51.352;6.412;2023-08-07T00:51:52;1.35;;;1.10;;
25535;SDS011;13431;51.352;6.412;2023-08-07T00:54:19;3.42;;;1.75;;
25535;SDS011;13431;51.352;6.412;2023-08-07T00:56:47;3.70;;;1.52;;
25535;SDS011;13431;51.352;6.412;2023-08-07T00:59:15;3.00;;;1.40;;
25535;SDS011;13431;51.352;6.412;2023-08-07T01:01:43;3.15;;;1.60;;
25535;SDS011;13431;51.352;6.412;2023-08-07T01:04:10;2.20;;;1.35;;
25535;SDS011;13431;51.352;6.412;2023-08-07T01:06:38;2.72;;;1.50;;
25535;SDS011;13431;51.352;6.412;2023-08-07T01:09:06;3.40;;;1.45;;
25535;SDS011;13431;51.352;6.412;2023-08-07T01:11:43;2.50;;;1.58;;
25535;SDS011;13431;51.352;6.412;2023-08-07T01:17:05;3.00;;;1.10;;
25535;SDS011;13431;51.352;6.412;2023-08-07T01:19:36;2.20;;;1.30;;
25535;SDS011;13431;51.352;6.412;2023-08-07T01:22:08;3.75;;;1.55;;
25535;SDS011;13431;51.352;6.412;2023-08-07T01:24:46;3.92;;;1.67;;
25535;SDS011;13431;51.352;6.412;2023-08-07T01:30:40;5.30;;;2.00;;
25535;SDS011;13431;51.352;6.412;2023-08-07T01:33:16;3.55;;;1.35;;
25535;SDS011;13431;51.352;6.412;2023-08-07T01:36:00;3.25;;;1.40;;
25535;SDS011;13431;51.352;6.412;2023-08-07T01:38:30;3.60;;;1.50;;
25535;SDS011;13431;51.352;6.412;2023-08-07T01:40:58;5.10;;;1.75;;
25535;SDS011;13431;51.352;6.412;2023-08-07T01:43:27;5.15;;;1.85;;
25535;SDS011;13431;51.352;6.412;2023-08-07T01:45:54;3.33;;;1.77;;
25535;SDS011;13431;51.352;6.412;2023-08-07T01:48:21;2.58;;;1.40;;
25535;SDS011;13431;51.352;6.412;2023-08-07T01:50:53;3.25;;;1.60;;
25535;SDS011;13431;51.352;6.412;2023-08-07T01:53:23;3.63;;;1.70;;
25535;SDS011;13431;51.352;6.412;2023-08-07T01:55:50;2.33;;;1.50;;
25535;SDS011;13431;51.352;6.412;2023-08-07T01:58:18;4.03;;;1.50;;
25535;SDS011;13431;51.352;6.412;2023-08-07T02:00:45;4.50;;;1.77;;
25535;SDS011;13431;51.352;6.412;2023-08-07T02:03:12;1.45;;;1.35;;
25535;SDS011;13431;51.352;6.412;2023-08-07T02:05:40;4.18;;;2.08;;
25535;SDS011;13431;51.352;6.412;2023-08-07T02:08:07;2.65;;;1.55;;
25535;SDS011;13431;51.352;6.412;2023-08-07T02:10:34;2.85;;;1.70;;
25535;SDS011;13431;51.352;6.412;2023-08-07T02:13:02;2.90;;;1.77;;
25535;SDS011;13431;51.352;6.412;2023-08-07T02:15:29;2.90;;;1.30;;
25535;SDS011;13431;51.352;6.412;2023-08-07T02:17:56;3.08;;;1.60;;
25535;SDS011;13431;51.352;6.412;2023-08-07T02:20:24;2.15;;;1.45;;
25535;SDS011;13431;51.352;6.412;2023-08-07T02:22:51;4.78;;;1.70;;
25535;SDS011;13431;51.352;6.412;2023-08-07T02:25:19;2.78;;;1.70;;
25535;SDS011;13431;51.352;6.412;2023-08-07T02:27:46;2.58;;;1.77;;
25535;SDS011;13431;51.352;6.412;2023-08-07T02:30:13;4.18;;;1.92;;
25535;SDS011;13431;51.352;6.412;2023-08-07T02:32:41;2.78;;;1.65;;
25535;SDS011;13431;51.352;6.412;2023-08-07T02:35:11;2.38;;;1.70;;
25535;SDS011;13431;51.352;6.412;2023-08-07T02:37:38;2.67;;;1.42;;
25535;SDS011;13431;51.352;6.412;2023-08-07T02:40:05;4.38;;;1.83;;
25535;SDS011;13431;51.352;6.412;2023-08-07T02:42:34;2.50;;;1.50;;
25535;SDS011;13431;51.352;6.412;2023-08-07T02:45:02;4.05;;;1.85;;
25535;SDS011;13431;51.352;6.412;2023-08-07T02:47:30;2.28;;;1.70;;
25535;SDS011;13431;51.352;6.412;2023-08-07T02:49:57;3.83;;;1.60;;
25535;SDS011;13431;51.352;6.412;2023-08-07T02:52:24;3.80;;;1.60;;
25535;SDS011;13431;51.352;6.412;2023-08-07T02:54:52;3.22;;;1.63;;
25535;SDS011;13431;51.352;6.412;2023-08-07T02:57:19;3.90;;;1.98;;
25535;SDS011;13431;51.352;6.412;2023-08-07T02:59:46;4.63;;;1.75;;
25535;SDS011;13431;51.352;6.412;2023-08-07T03:02:14;2.40;;;1.38;;
25535;SDS011;13431;51.352;6.412;2023-08-07T03:04:41;3.25;;;1.70;;
25535;SDS011;13431;51.352;6.412;2023-08-07T03:07:08;3.40;;;1.40;;
25535;SDS011;13431;51.352;6.412;2023-08-07T03:09:36;2.90;;;1.45;;
25535;SDS011;13431;51.352;6.412;2023-08-07T03:12:03;1.75;;;1.38;;
25535;SDS011;13431;51.352;6.412;2023-08-07T03:14:31;2.97;;;1.45;;
25535;SDS011;13431;51.352;6.412;2023-08-07T03:16:58;2.47;;;1.83;;
25535;SDS011;13431;51.352;6.412;2023-08-07T03:19:26;3.25;;;1.73;;
25535;SDS011;13431;51.352;6.412;2023-08-07T03:21:53;2.92;;;1.95;;
25535;SDS011;13431;51.352;6.412;2023-08-07T03:24:21;4.05;;;2.08;;
25535;SDS011;13431;51.352;6.412;2023-08-07T03:26:48;3.05;;;1.45;;
25535;SDS011;13431;51.352;6.412;2023-08-07T03:29:16;3.30;;;1.80;;
25535;SDS011;13431;51.352;6.412;2023-08-07T03:31:43;2.38;;;1.75;;
25535;SDS011;13431;51.352;6.412;2023-08-07T03:34:12;3.40;;;1.90;;
25535;SDS011;13431;51.352;6.412;2023-08-07T03:36:39;1.70;;;1.50;;
25535;SDS011;13431;51.352;6.412;2023-08-07T03:39:06;2.92;;;1.90;;
25535;SDS011;13431;51.352;6.412;2023-08-07T03:41:34;2.45;;;1.63;;
25535;SDS011;13431;51.352;6.412;2023-08-07T03:44:02;4.40;;;1.92;;
25535;SDS011;13431;51.352;6.412;2023-08-07T03:46:29;2.63;;;1.75;;
25535;SDS011;13431;51.352;6.412;2023-08-07T03:48:56;2.17;;;1.98;;
25535;SDS011;13431;51.352;6.412;2023-08-07T03:51:24;1.88;;;1.40;;
25535;SDS011;13431;51.352;6.412;2023-08-07T03:53:53;1.48;;;1.38;;
25535;SDS011;13431;51.352;6.412;2023-08-07T03:56:21;3.30;;;2.03;;
25535;SDS011;13431;51.352;6.412;2023-08-07T03:58:48;3.20;;;1.33;;
25535;SDS011;13431;51.352;6.412;2023-08-07T04:01:19;1.63;;;1.48;;
25535;SDS011;13431;51.352;6.412;2023-08-07T04:03:46;2.05;;;1.45;;
25535;SDS011;13431;51.352;6.412;2023-08-07T04:06:15;3.45;;;1.95;;
25535;SDS011;13431;51.352;6.412;2023-08-07T04:08:46;2.28;;;1.25;;
25535;SDS011;13431;51.352;6.412;2023-08-07T04:11:14;2.53;;;1.42;;
25535;SDS011;13431;51.352;6.412;2023-08-07T04:13:41;1.70;;;1.40;;
25535;SDS011;13431;51.352;6.412;2023-08-07T04:16:08;1.98;;;1.45;;
25535;SDS011;13431;51.352;6.412;2023-08-07T04:18:36;1.35;;;1.20;;
25535;SDS011;13431;51.352;6.412;2023-08-07T04:21:03;2.00;;;1.17;;
25535;SDS011;13431;51.352;6.412;2023-08-07T04:23:31;1.40;;;1.30;;
25535;SDS011;13431;51.352;6.412;2023-08-07T04:25:58;2.10;;;1.02;;
25535;SDS011;13431;51.352;6.412;2023-08-07T04:28:29;1.85;;;1.23;;
25535;SDS011;13431;51.352;6.412;2023-08-07T04:30:56;1.17;;;1.08;;
25535;SDS011;13431;51.352;6.412;2023-08-07T04:33:24;1.20;;;1.10;;
25535;SDS011;13431;51.352;6.412;2023-08-07T04:35:51;1.48;;;1.30;;
25535;SDS011;13431;51.352;6.412;2023-08-07T04:38:19;1.48;;;1.20;;
25535;SDS011;13431;51.352;6.412;2023-08-07T04:40:47;2.20;;;1.15;;
25535;SDS011;13431;51.352;6.412;2023-08-07T04:43:18;1.00;;;1.00;;
25535;SDS011;13431;51.352;6.412;2023-08-07T04:45:49;1.73;;;1.00;;
25535;SDS011;13431;51.352;6.412;2023-08-07T04:48:16;1.23;;;1.08;;
25535;SDS011;13431;51.352;6.412;2023-08-07T04:50:44;1.10;;;1.10;;
25535;SDS011;13431;51.352;6.412;2023-08-07T04:53:12;1.35;;;1.10;;
25535;SDS011;13431;51.352;6.412;2023-08-07T04:55:39;1.33;;;1.00;;
25535;SDS011;13431;51.352;6.412;2023-08-07T04:58:06;1.75;;;1.30;;
25535;SDS011;13431;51.352;6.412;2023-08-07T05:00:34;1.42;;;1.33;;
25535;SDS011;13431;51.352;6.412;2023-08-07T05:03:01;1.10;;;0.90;;
25535;SDS011;13431;51.352;6.412;2023-08-07T05:05:29;1.20;;;1.02;;
25535;SDS011;13431;51.352;6.412;2023-08-07T05:07:57;1.02;;;1.00;;
25535;SDS011;13431;51.352;6.412;2023-08-07T05:10:25;1.40;;;0.90;;
25535;SDS011;13431;51.352;6.412;2023-08-07T05:12:52;1.25;;;0.88;;
25535;SDS011;13431;51.352;6.412;2023-08-07T05:15:22;1.30;;;1.20;;
25535;SDS011;13431;51.352;6.412;2023-08-07T05:17:51;0.88;;;0.88;;
25535;SDS011;13431;51.352;6.412;2023-08-07T05:20:19;1.88;;;0.95;;
25535;SDS011;13431;51.352;6.412;2023-08-07T05:22:46;1.02;;;0.80;;
25535;SDS011;13431;51.352;6.412;2023-08-07T05:25:14;1.33;;;1.23;;
25535;SDS011;13431;51.352;6.412;2023-08-07T05:27:43;1.00;;;1.00;;
25535;SDS011;13431;51.352;6.412;2023-08-07T05:30:11;1.08;;;1.02;;
25535;SDS011;13431;51.352;6.412;2023-08-07T05:32:39;2.35;;;0.90;;
25535;SDS011;13431;51.352;6.412;2023-08-07T05:35:07;1.63;;;0.82;;
25535;SDS011;13431;51.352;6.412;2023-08-07T05:37:35;1.35;;;1.02;;
25535;SDS011;13431;51.352;6.412;2023-08-07T05:40:03;1.02;;;0.90;;
25535;SDS011;13431;51.352;6.412;2023-08-07T05:42:31;1.13;;;1.10;;
25535;SDS011;13431;51.352;6.412;2023-08-07T05:44:59;1.73;;;1.10;;
25535;SDS011;13431;51.352;6.412;2023-08-07T05:47:26;0.90;;;0.90;;
25535;SDS011;13431;51.352;6.412;2023-08-07T05:49:53;1.00;;;0.90;;
25535;SDS011;13431;51.352;6.412;2023-08-07T05:52:21;1.40;;;0.90;;
25535;SDS011;13431;51.352;6.412;2023-08-07T05:54:48;1.08;;;1.02;;
25535;SDS011;13431;51.352;6.412;2023-08-07T05:57:17;1.10;;;1.00;;
25535;SDS011;13431;51.352;6.412;2023-08-07T05:59:44;1.50;;;1.20;;
25535;SDS011;13431;51.352;6.412;2023-08-07T06:02:12;6.78;;;1.02;;
25535;SDS011;13431;51.352;6.412;2023-08-07T06:04:39;1.13;;;0.90;;
25535;SDS011;13431;51.352;6.412;2023-08-07T06:07:07;1.10;;;0.90;;
25535;SDS011;13431;51.352;6.412;2023-08-07T06:09:35;1.52;;;1.02;;
25535;SDS011;13431;51.352;6.412;2023-08-07T06:12:03;1.17;;;1.08;;
25535;SDS011;13431;51.352;6.412;2023-08-07T06:14:30;1.70;;;1.02;;
25535;SDS011;13431;51.352;6.412;2023-08-07T06:16:58;0.95;;;0.90;;
25535;SDS011;13431;51.352;6.412;2023-08-07T06:19:27;1.40;;;1.30;;
25535;SDS011;13431;51.352;6.412;2023-08-07T06:21:59;1.20;;;1.10;;
25535;SDS011;13431;51.352;6.412;2023-08-07T06:24:27;4.88;;;1.45;;
25535;SDS011;13431;51.352;6.412;2023-08-07T06:26:55;3.78;;;1.52;;
25535;SDS011;13431;51.352;6.412;2023-08-07T06:29:22;2.67;;;1.85;;
25535;SDS011;13431;51.352;6.412;2023-08-07T06:31:50;2.40;;;1.80;;
25535;SDS011;13431;51.352;6.412;2023-08-07T06:34:17;3.25;;;2.05;;
25535;SDS011;13431;51.352;6.412;2023-08-07T06:36:45;4.10;;;2.30;;
25535;SDS011;13431;51.352;6.412;2023-08-07T06:39:12;2.78;;;2.00;;
25535;SDS011;13431;51.352;6.412;2023-08-07T06:41:39;2.53;;;1.90;;
25535;SDS011;13431;51.352;6.412;2023-08-07T06:44:08;7.82;;;2.78;;
25535;SDS011;13431;51.352;6.412;2023-08-07T06:46:35;2.35;;;1.90;;
25535;SDS011;13431;51.352;6.412;2023-08-07T06:49:02;3.30;;;2.17;;
25535;SDS011;13431;51.352;6.412;2023-08-07T06:51:29;2.95;;;2.65;;
25535;SDS011;13431;51.352;6.412;2023-08-07T06:53:57;3.35;;;2.00;;
25535;SDS011;13431;51.352;6.412;2023-08-07T06:56:24;2.50;;;1.98;;
25535;SDS011;13431;51.352;6.412;2023-08-07T06:58:51;3.28;;;1.98;;
25535;SDS011;13431;51.352;6.412;2023-08-07T07:01:19;2.60;;;1.85;;
25535;SDS011;13431;51.352;6.412;2023-08-07T07:03:46;4.90;;;2.28;;
25535;SDS011;13431;51.352;6.412;2023-08-07T07:06:19;2.70;;;1.70;;
25535;SDS011;13431;51.352;6.412;2023-08-07T07:08:48;2.88;;;1.98;;
25535;SDS011;13431;51.352;6.412;2023-08-07T07:11:16;2.72;;;1.80;;
25535;SDS011;13431;51.352;6.412;2023-08-07T07:13:46;2.60;;;1.58;;
25535;SDS011;13431;51.352;6.412;2023-08-07T07:16:14;2.75;;;1.75;;
25535;SDS011;13431;51.352;6.412;2023-08-07T07:18:41;3.15;;;2.05;;
25535;SDS011;13431;51.352;6.412;2023-08-07T07:21:09;2.22;;;1.67;;
25535;SDS011;13431;51.352;6.412;2023-08-07T07:23:36;1.77;;;1.60;;
25535;SDS011;13431;51.352;6.412;2023-08-07T07:26:03;2.67;;;1.98;;
25535;SDS011;13431;51.352;6.412;2023-08-07T07:28:30;4.30;;;1.67;;
25535;SDS011;13431;51.352;6.412;2023-08-07T07:30:58;3.38;;;2.03;;
25535;SDS011;13431;51.352;6.412;2023-08-07T07:33:26;2.40;;;1.55;;
25535;SDS011;13431;51.352;6.412;2023-08-07T07:35:54;4.60;;;1.85;;
25535;SDS011;13431;51.352;6.412;2023-08-07T07:38:22;3.95;;;1.80;;
25535;SDS011;13431;51.352;6.412;2023-08-07T07:40:49;3.63;;;2.10;;
25535;SDS011;13431;51.352;6.412;2023-08-07T07:43:16;5.25;;;2.17;;
25535;SDS011;13431;51.352;6.412;2023-08-07T07:45:44;3.38;;;1.95;;
25535;SDS011;13431;51.352;6.412;2023-08-07T07:48:11;3.45;;;2.00;;
25535;SDS011;13431;51.352;6.412;2023-08-07T07:50:38;2.53;;;2.08;;
25535;SDS011;13431;51.352;6.412;2023-08-07T07:53:06;3.58;;;2.08;;
25535;SDS011;13431;51.352;6.412;2023-08-07T07:55:33;3.15;;;2.05;;
25535;SDS011;13431;51.352;6.412;2023-08-07T07:58:01;4.03;;;2.38;;
25535;SDS011;13431;51.352;6.412;2023-08-07T08:00:28;4.30;;;1.73;;
25535;SDS011;13431;51.352;6.412;2023-08-07T08:02:55;6.82;;;2.58;;
25535;SDS011;13431;51.352;6.412;2023-08-07T08:05:23;4.95;;;2.33;;
25535;SDS011;13431;51.352;6.412;2023-08-07T08:07:50;4.57;;;2.50;;
25535;SDS011;13431;51.352;6.412;2023-08-07T08:10:18;6.97;;;2.33;;
25535;SDS011;13431;51.352;6.412;2023-08-07T08:12:45;5.38;;;2.42;;
25535;SDS011;13431;51.352;6.412;2023-08-07T08:15:12;5.45;;;2.42;;
25535;SDS011;13431;51.352;6.412;2023-08-07T08:17:39;4.00;;;2.00;;
25535;SDS011;13431;51.352;6.412;2023-08-07T08:20:07;3.70;;;1.83;;
25535;SDS011;13431;51.352;6.412;2023-08-07T08:22:35;3.70;;;2.03;;
25535;SDS011;13431;51.352;6.412;2023-08-07T08:25:02;8.82;;;2.70;;
25535;SDS011;13431;51.352;6.412;2023-08-07T08:27:31;8.02;;;2.80;;
25535;SDS011;13431;51.352;6.412;2023-08-07T08:29:59;12.13;;;4.63;;
25535;SDS011;13431;51.352;6.412;2023-08-07T08:32:26;18.23;;;5.63;;
25535;SDS011;13431;51.352;6.412;2023-08-07T08:34:53;21.15;;;6.55;;
25535;SDS011;13431;51.352;6.412;2023-08-07T08:37:21;24.05;;;7.13;;
25535;SDS011;13431;51.352;6.412;2023-08-07T08:39:49;35.53;;;8.77;;
25535;SDS011;13431;51.352;6.412;2023-08-07T08:42:16;26.23;;;8.70;;
25535;SDS011;13431;51.352;6.412;2023-08-07T08:44:48;29.58;;;8.40;;
25535;SDS011;13431;51.352;6.412;2023-08-07T08:47:18;27.40;;;8.60;;
25535;SDS011;13431;51.352;6.412;2023-08-07T08:49:56;23.20;;;8.15;;
25535;SDS011;13431;51.352;6.412;2023-08-07T08:52:30;22.63;;;8.35;;
25535;SDS011;13431;51.352;6.412;2023-08-07T08:54:59;32.35;;;9.73;;
25535;SDS011;13431;51.352;6.412;2023-08-07T08:57:27;32.03;;;10.55;;
25535;SDS011;13431;51.352;6.412;2023-08-07T08:59:56;32.75;;;10.60;;
25535;SDS011;13431;51.352;6.412;2023-08-07T09:02:24;33.75;;;10.07;;
25535;SDS011;13431;51.352;6.412;2023-08-07T09:04:52;27.27;;;9.77;;
25535;SDS011;13431;51.352;6.412;2023-08-07T09:07:19;23.67;;;9.23;;
25535;SDS011;13431;51.352;6.412;2023-08-07T09:09:47;33.15;;;8.85;;
25535;SDS011;13431;51.352;6.412;2023-08-07T09:12:18;24.77;;;9.25;;
25535;SDS011;13431;51.352;6.412;2023-08-07T09:14:49;20.80;;;8.50;;
25535;SDS011;13431;51.352;6.412;2023-08-07T09:17:23;27.92;;;9.48;;
25535;SDS011;13431;51.352;6.412;2023-08-07T09:19:54;20.90;;;8.65;;
25535;SDS011;13431;51.352;6.412;2023-08-07T09:22:22;18.27;;;7.20;;
25535;SDS011;13431;51.352;6.412;2023-08-07T09:24:50;24.48;;;8.65;;
25535;SDS011;13431;51.352;6.412;2023-08-07T09:27:17;23.25;;;8.18;;
25535;SDS011;13431;51.352;6.412;2023-08-07T09:29:44;24.08;;;6.88;;
25535;SDS011;13431;51.352;6.412;2023-08-07T09:32:13;17.45;;;7.05;;
25535;SDS011;13431;51.352;6.412;2023-08-07T09:34:41;16.85;;;6.47;;
25535;SDS011;13431;51.352;6.412;2023-08-07T09:37:09;22.60;;;8.98;;
25535;SDS011;13431;51.352;6.412;2023-08-07T09:39:37;18.70;;;7.60;;
25535;SDS011;13431;51.352;6.412;2023-08-07T09:42:04;18.92;;;7.53;;
25535;SDS011;13431;51.352;6.412;2023-08-07T09:44:35;17.98;;;7.10;;
25535;SDS011;13431;51.352;6.412;2023-08-07T09:47:13;18.17;;;7.03;;
25535;SDS011;13431;51.352;6.412;2023-08-07T09:49:45;16.05;;;6.55;;
25535;SDS011;13431;51.352;6.412;2023-08-07T09:52:13;15.93;;;6.63;;
25535;SDS011;13431;51.352;6.412;2023-08-07T09:54:42;14.07;;;6.32;;
25535;SDS011;13431;51.352;6.412;2023-08-07T09:57:09;12.90;;;6.22;;
25535;SDS011;13431;51.352;6.412;2023-08-07T09:59:37;15.65;;;6.25;;
25535;SDS011;13431;51.352;6.412;2023-08-07T10:02:04;15.60;;;5.78;;
25535;SDS011;13431;51.352;6.412;2023-08-07T10:04:32;13.52;;;5.43;;
25535;SDS011;13431;51.352;6.412;2023-08-07T10:06:59;10.70;;;5.22;;
25535;SDS011;13431;51.352;6.412;2023-08-07T10:09:28;15.43;;;5.47;;
25535;SDS011;13431;51.352;6.412;2023-08-07T10:11:57;11.52;;;5.40;;
25535;SDS011;13431;51.352;6.412;2023-08-07T10:14:25;12.43;;;5.40;;
25535;SDS011;13431;51.352;6.412;2023-08-07T10:16:54;10.25;;;4.75;;
25535;SDS011;13431;51.352;6.412;2023-08-07T10:19:22;10.32;;;4.70;;
25535;SDS011;13431;51.352;6.412;2023-08-07T10:21:49;11.52;;;4.70;;
25535;SDS011;13431;51.352;6.412;2023-08-07T10:24:17;10.57;;;4.43;;
25535;SDS011;13431;51.352;6.412;2023-08-07T10:26:46;13.50;;;6.15;;
25535;SDS011;13431;51.352;6.412;2023-08-07T10:29:16;9.43;;;4.43;;
25535;SDS011;13431;51.352;6.412;2023-08-07T10:31:46;7.93;;;4.40;;
25535;SDS011;13431;51.352;6.412;2023-08-07T10:34:15;11.32;;;4.68;;
25535;SDS011;13431;51.352;6.412;2023-08-07T10:36:42;11.10;;;4.57;;
25535;SDS011;13431;51.352;6.412;2023-08-07T10:39:11;9.90;;;4.85;;
25535;SDS011;13431;51.352;6.412;2023-08-07T10:41:44;10.40;;;4.47;;
25535;SDS011;13431;51.352;6.412;2023-08-07T10:44:25;8.23;;;4.30;;
25535;SDS011;13431;51.352;6.412;2023-08-07T10:46:57;10.32;;;4.82;;
25535;SDS011;13431;51.352;6.412;2023-08-07T10:49:35;9.27;;;4.22;;
25535;SDS011;13431;51.352;6.412;2023-08-07T10:52:07;9.38;;;4.45;;
25535;SDS011;13431;51.352;6.412;2023-08-07T10:54:37;9.82;;;4.65;;
25535;SDS011;13431;51.352;6.412;2023-08-07T10:57:12;12.13;;;4.82;;
25535;SDS011;13431;51.352;6.412;2023-08-07T10:59:50;10.52;;;4.35;;
25535;SDS011;13431;51.352;6.412;2023-08-07T11:02:24;12.90;;;4.80;;
25535;SDS011;13431;51.352;6.412;2023-08-07T11:04:53;10.90;;;4.07;;
25535;SDS011;13431;51.352;6.412;2023-08-07T11:07:25;8.95;;;3.78;;
25535;SDS011;13431;51.352;6.412;2023-08-07T11:09:54;10.10;;;3.88;;
25535;SDS011;13431;51.352;6.412;2023-08-07T11:12:26;8.27;;;3.83;;
25535;SDS011;13431;51.352;6.412;2023-08-07T11:14:56;7.85;;;4.05;;
25535;SDS011;13431;51.352;6.412;2023-08-07T11:17:24;5.68;;;3.15;;
25535;SDS011;13431;51.352;6.412;2023-08-07T11:19:52;8.07;;;3.83;;
25535;SDS011;13431;51.352;6.412;2023-08-07T11:22:21;8.18;;;4.30;;
25535;SDS011;13431;51.352;6.412;2023-08-07T11:24:49;7.25;;;3.55;;
25535;SDS011;13431;51.352;6.412;2023-08-07T11:27:18;6.25;;;3.47;;
25535;SDS011;13431;51.352;6.412;2023-08-07T11:29:48;5.88;;;3.60;;
25535;SDS011;13431;51.352;6.412;2023-08-07T11:32:16;5.72;;;3.33;;
25535;SDS011;13431;51.352;6.412;2023-08-07T11:34:48;5.45;;;3.25;;
25535;SDS011;13431;51.352;6.412;2023-08-07T11:37:17;7.20;;;3.45;;
25535;SDS011;13431;51.352;6.412;2023-08-07T11:39:44;5.40;;;3.28;;
25535;SDS011;13431;51.352;6.412;2023-08-07T11:42:12;5.75;;;3.28;;
25535;SDS011;13431;51.352;6.412;2023-08-07T11:44:40;6.03;;;3.45;;
25535;SDS011;13431;51.352;6.412;2023-08-07T11:47:09;7.00;;;3.05;;
25535;SDS011;13431;51.352;6.412;2023-08-07T11:49:37;6.22;;;3.72;;
25535;SDS011;13431;51.352;6.412;2023-08-07T11:52:05;8.43;;;3.85;;
25535;SDS011;13431;51.352;6.412;2023-08-07T11:54:32;6.60;;;3.30;;
25535;SDS011;13431;51.352;6.412;2023-08-07T11:56:59;7.55;;;3.47;;
25535;SDS011;13431;51.352;6.412;2023-08-07T11:59:27;6.88;;;3.08;;
25535;SDS011;13431;51.352;6.412;2023-08-07T12:01:54;8.35;;;3.92;;
25535;SDS011;13431;51.352;6.412;2023-08-07T12:04:22;4.45;;;3.05;;
25535;SDS011;13431;51.352;6.412;2023-08-07T12:06:53;5.82;;;3.15;;
25535;SDS011;13431;51.352;6.412;2023-08-07T12:09:22;5.88;;;3.40;;
25535;SDS011;13431;51.352;6.412;2023-08-07T12:11:50;3.90;;;2.70;;
25535;SDS011;13431;51.352;6.412;2023-08-07T12:14:27;6.75;;;3.55;;
25535;SDS011;13431;51.352;6.412;2023-08-07T12:17:00;4.75;;;2.90;;
25535;SDS011;13431;51.352;6.412;2023-08-07T12:19:38;5.60;;;2.85;;
25535;SDS011;13431;51.352;6.412;2023-08-07T12:22:07;4.85;;;3.28;;
25535;SDS011;13431;51.352;6.412;2023-08-07T12:24:36;6.50;;;3.20;;
25535;SDS011;13431;51.352;6.412;2023-08-07T12:27:04;6.07;;;3.38;;
25535;SDS011;13431;51.352;6.412;2023-08-07T12:29:32;3.95;;;3.13;;
25535;SDS011;13431;51.352;6.412;2023-08-07T12:31:59;3.97;;;2.38;;
25535;SDS011;13431;51.352;6.412;2023-08-07T12:34:29;5.35;;;2.97;;
25535;SDS011;13431;51.352;6.412;2023-08-07T12:36:59;4.35;;;3.03;;
25535;SDS011;13431;51.352;6.412;2023-08-07T12:39:26;3.55;;;2.45;;
25535;SDS011;13431;51.352;6.412;2023-08-07T12:41:56;4.53;;;2.92;;
25535;SDS011;13431;51.352;6.412;2023-08-07T12:44:27;6.28;;;3.05;;
25535;SDS011;13431;51.352;6.412;2023-08-07T12:46:55;5.38;;;3.03;;
25535;SDS011;13431;51.352;6.412;2023-08-07T12:49:23;4.35;;;3.05;;
25535;SDS011;13431;51.352;6.412;2023-08-07T12:51:51;3.80;;;3.13;;
25535;SDS011;13431;51.352;6.412;2023-08-07T12:54:19;6.45;;;2.83;;
25535;SDS011;13431;51.352;6.412;2023-08-07T12:56:47;4.88;;;2.78;;
25535;SDS011;13431;51.352;6.412;2023-08-07T12:59:14;3.72;;;2.67;;
25535;SDS011;13431;51.352;6.412;2023-08-07T13:01:41;4.78;;;2.58;;
25535;SDS011;13431;51.352;6.412;2023-08-07T13:04:09;2.63;;;2.15;;
25535;SDS011;13431;51.352;6.412;2023-08-07T13:06:39;3.83;;;2.42;;
25535;SDS011;13431;51.352;6.412;2023-08-07T13:09:06;4.45;;;3.25;;
25535;SDS011;13431;51.352;6.412;2023-08-07T13:11:33;4.05;;;2.92;;
25535;SDS011;13431;51.352;6.412;2023-08-07T13:14:01;5.25;;;2.85;;
25535;SDS011;13431;51.352;6.412;2023-08-07T13:16:28;3.28;;;2.53;;
25535;SDS011;13431;51.352;6.412;2023-08-07T13:18:55;5.45;;;2.97;;
25535;SDS011;13431;51.352;6.412;2023-08-07T13:21:23;3.17;;;2.65;;
25535;SDS011;13431;51.352;6.412;2023-08-07T13:23:50;4.00;;;2.40;;
25535;SDS011;13431;51.352;6.412;2023-08-07T13:26:18;4.15;;;2.95;;
25535;SDS011;13431;51.352;6.412;2023-08-07T13:28:45;3.40;;;2.63;;
25535;SDS011;13431;51.352;6.412;2023-08-07T13:31:12;4.10;;;2.95;;
25535;SDS011;13431;51.352;6.412;2023-08-07T13:33:40;3.20;;;2.90;;
25535;SDS011;13431;51.352;6.412;2023-08-07T13:36:07;4.28;;;2.75;;
25535;SDS011;13431;51.352;6.412;2023-08-07T13:38:34;3.72;;;2.45;;
25535;SDS011;13431;51.352;6.412;2023-08-07T13:41:01;4.30;;;2.80;;
25535;SDS011;13431;51.352;6.412;2023-08-07T13:43:29;3.55;;;2.45;;
25535;SDS011;13431;51.352;6.412;2023-08-07T13:45:56;3.10;;;2.03;;
25535;SDS011;13431;51.352;6.412;2023-08-07T13:48:23;3.45;;;2.72;;
25535;SDS011;13431;51.352;6.412;2023-08-07T13:50:53;3.00;;;2.08;;
25535;SDS011;13431;51.352;6.412;2023-08-07T13:53:21;3.55;;;2.65;;
25535;SDS011;13431;51.352;6.412;2023-08-07T13:55:50;2.70;;;2.45;;
25535;SDS011;13431;51.352;6.412;2023-08-07T13:58:17;2.70;;;2.40;;
25535;SDS011;13431;51.352;6.412;2023-08-07T14:00:45;2.95;;;2.10;;
25535;SDS011;13431;51.352;6.412;2023-08-07T14:03:12;3.00;;;2.08;;
25535;SDS011;13431;51.352;6.412;2023-08-07T14:05:41;2.95;;;2.30;;
25535;SDS011;13431;51.352;6.412;2023-08-07T14:08:08;3.35;;;2.47;;
25535;SDS011;13431;51.352;6.412;2023-08-07T14:10:37;3.33;;;2.22;;
25535;SDS011;13431;51.352;6.412;2023-08-07T14:13:08;3.05;;;2.17;;
25535;SDS011;13431;51.352;6.412;2023-08-07T14:15:36;2.92;;;2.40;;
25535;SDS011;13431;51.352;6.412;2023-08-07T14:18:03;3.88;;;2.35;;
25535;SDS011;13431;51.352;6.412;2023-08-07T14:20:31;3.17;;;2.55;;
25535;SDS011;13431;51.352;6.412;2023-08-07T14:23:04;2.83;;;2.30;;
25535;SDS011;13431;51.352;6.412;2023-08-07T14:25:47;3.00;;;2.35;;
25535;SDS011;13431;51.352;6.412;2023-08-07T14:28:17;2.95;;;2.05;;
25535;SDS011;13431;51.352;6.412;2023-08-07T14:30:45;3.08;;;2.50;;
25535;SDS011;13431;51.352;6.412;2023-08-07T14:33:12;3.08;;;2.28;;
25535;SDS011;13431;51.352;6.412;2023-08-07T14:35:39;2.65;;;2.08;;
25535;SDS011;13431;51.352;6.412;2023-08-07T14:38:07;3.85;;;2.53;;
25535;SDS011;13431;51.352;6.412;2023-08-07T14:40:35;3.65;;;2.40;;
25535;SDS011;13431;51.352;6.412;2023-08-07T14:43:06;2.72;;;1.95;;
25535;SDS011;13431;51.352;6.412;2023-08-07T14:45:33;3.15;;;2.30;;
25535;SDS011;13431;51.352;6.412;2023-08-07T14:48:01;3.45;;;2.45;;
25535;SDS011;13431;51.352;6.412;2023-08-07T14:50:28;3.28;;;2.13;;
25535;SDS011;13431;51.352;6.412;2023-08-07T14:52:56;3.60;;;2.38;;
25535;SDS011;13431;51.352;6.412;2023-08-07T14:55:23;4.18;;;2.78;;
25535;SDS011;13431;51.352;6.412;2023-08-07T14:57:50;2.83;;;2.03;;